Airfield :
LOGIN :

Register | Disclaimer

   EN    FR    IT 

 










Legend :    VFR   Marginal VFR   IFR   Intensive IFR   Very Intensive IFR
Visi :
Ceiling :
>= 8 km
>= 3000ft
5 to 8 km
1000 to 3000 ft
1500m to 5 km
500 to 1000 ft
800 to 1500m
200 to 500 ft
< 800m
< 200 ft
Symbols :   Thunderstorms  Fog  Heavy snow  Heavy precipitations  Wind > 20 kt
SIGMETs :     Misc.  Thunderstorms  Icing  Turbulence  Mountain Waves  Volcanic Ashes






- Airport Elevation : 2096 ft
- IATA code : AUR


LFLW - Aurillac

CURRENT METAR :
  • 011030Z AUTO 14008KT 100V180 9999 ////// 11/04 Q1016

EXPIRED METARs :
  • 011000Z AUTO 16009KT 100V190 9999 ////// 11/03 Q1016
  • 010930Z AUTO 14009KT 100V180 9999 ////// 10/03 Q1016
  • 010900Z AUTO 11009KT 080V140 9999 ////// 10/03 Q1016
  • 010830Z AUTO 12010KT 090V160 9999 ////// 09/02 Q1016
  • 010800Z AUTO 12009KT 090V160 9999 ////// 08/02 Q1016
  • 010730Z AUTO 10005KT 9999 ////// 07/02 Q1016

Expired Forecast.



MET'MAP, your aeronautical weather chart ! - Copyright ORBIFLY December 2007 - Disclaimer

ORBIFLY MET'MAP TEAM :

Programming & Development : Alexandra Zaïnal
Concept & original design : Baudouin d'Aumeries
Assistance for programming : Marc-Olivier Méhu
Technical & hardware support : Manuel Goepfert

Contact : metmap@orbifly.com




SOURCES & CREDITS :

   NOAA